Time;durP1;ratioP1;P1;durP2;ratioP2;P2;SDS_P1;SDS_P2;PMS_P1;PMS_P2;Temp;Humidity;BMP_temperature;BMP_pressure;BME280_temperature;BME280_humidity;BME280_pressure;Samples;Min_cycle;Max_cycle;Signal;HPM_P1;HPM_P2
2021/07/30 00:00:04;;;;;;;230.00;146.62;;;;;;;;;;4151976;34;20067;-84
2021/07/30 00:02:33;;;;;;;233.38;147.15;;;;;;;;;;4150428;34;20041;-84
2021/07/30 00:05:03;;;;;;;207.62;145.23;;;;;;;;;;4144023;34;20127;-84
2021/07/30 00:07:31;;;;;;;212.20;146.20;;;;;;;;;;4146867;34;20425;-83
2021/07/30 00:10:00;;;;;;;183.40;142.23;;;;;;;;;;4142018;34;20103;-85
2021/07/30 00:12:28;;;;;;;327.92;223.20;;;;;;;;;;4143766;34;20215;-85
2021/07/30 00:14:58;;;;;;;253.45;161.55;;;;;;;;;;4140087;34;20468;-85
2021/07/30 00:17:26;;;;;;;222.30;143.82;;;;;;;;;;4140391;34;20071;-85
2021/07/30 00:19:55;;;;;;;218.90;152.85;;;;;;;;;;4140589;34;20211;-85
2021/07/30 00:22:23;;;;;;;218.60;140.02;;;;;;;;;;4143595;34;20048;-84
2021/07/30 00:24:52;;;;;;;217.05;140.60;;;;;;;;;;4144170;34;20413;-85
2021/07/30 00:27:21;;;;;;;248.07;170.23;;;;;;;;;;4147184;34;20124;-84
2021/07/30 00:29:49;;;;;;;250.40;165.45;;;;;;;;;;4146379;34;20600;-84
2021/07/30 00:32:18;;;;;;;243.63;158.30;;;;;;;;;;4147335;34;20472;-84
2021/07/30 00:34:47;;;;;;;235.90;152.00;;;;;;;;;;4144659;34;20475;-84
2021/07/30 00:37:15;;;;;;;177.75;134.45;;;;;;;;;;4129920;34;20091;-84
2021/07/30 00:39:43;;;;;;;239.35;165.07;;;;;;;;;;4137229;34;20075;-84
2021/07/30 00:42:12;;;;;;;265.87;176.80;;;;;;;;;;4146673;34;20432;-84
2021/07/30 00:44:41;;;;;;;204.02;133.55;;;;;;;;;;4141571;34;20052;-84
2021/07/30 00:47:09;;;;;;;210.15;136.43;;;;;;;;;;4147714;34;20676;-84
2021/07/30 00:49:39;;;;;;;197.15;126.60;;;;;;;;;;4145761;34;20183;-85
2021/07/30 00:52:11;;;;;;;204.00;129.77;;;;;;;;;;4131752;34;20060;-84
2021/07/30 00:54:40;;;;;;;210.57;135.73;;;;;;;;;;4143857;34;20056;-83
2021/07/30 00:57:08;;;;;;;234.07;159.73;;;;;;;;;;4147223;34;20175;-84
2021/07/30 00:59:37;;;;;;;221.45;144.23;;;;;;;;;;4138369;34;20241;-85
2021/07/30 01:02:06;;;;;;;224.07;146.93;;;;;;;;;;4135669;34;20072;-84
2021/07/30 01:04:35;;;;;;;197.57;125.47;;;;;;;;;;4139666;34;20049;-84
2021/07/30 01:07:03;;;;;;;228.93;142.37;;;;;;;;;;4134712;34;20114;-84
2021/07/30 01:09:32;;;;;;;226.00;142.52;;;;;;;;;;4135830;34;20103;-84
2021/07/30 01:12:02;;;;;;;229.98;142.00;;;;;;;;;;4140997;34;20126;-84
2021/07/30 01:14:30;;;;;;;178.57;141.23;;;;;;;;;;4143780;34;20093;-84
2021/07/30 01:17:00;;;;;;;171.98;128.60;;;;;;;;;;4140918;34;20327;-84
2021/07/30 01:19:29;;;;;;;163.07;123.93;;;;;;;;;;4147187;34;20048;-84
2021/07/30 01:22:01;;;;;;;156.37;120.85;;;;;;;;;;4147250;34;20119;-84
2021/07/30 01:24:30;;;;;;;163.40;122.20;;;;;;;;;;4143008;34;21761;-84
2021/07/30 01:27:01;;;;;;;183.85;114.95;;;;;;;;;;4131634;34;20347;-84
2021/07/30 01:29:30;;;;;;;184.30;116.40;;;;;;;;;;4141682;34;20079;-83
2021/07/30 01:32:02;;;;;;;191.12;118.68;;;;;;;;;;4144684;34;20053;-84
2021/07/30 01:34:31;;;;;;;183.55;116.55;;;;;;;;;;4140716;34;20407;-84
2021/07/30 01:36:59;;;;;;;185.95;117.72;;;;;;;;;;4143236;34;20510;-83
2021/07/30 01:39:28;;;;;;;195.62;118.25;;;;;;;;;;4139389;34;20625;-85
2021/07/30 01:41:57;;;;;;;184.35;117.43;;;;;;;;;;4144905;34;20044;-84
2021/07/30 01:44:26;;;;;;;188.25;117.30;;;;;;;;;;4147923;34;20105;-83
2021/07/30 01:46:54;;;;;;;183.20;118.03;;;;;;;;;;4150211;34;20112;-84
2021/07/30 01:49:23;;;;;;;180.20;118.82;;;;;;;;;;4138092;34;20056;-84
2021/07/30 01:51:52;;;;;;;181.23;123.53;;;;;;;;;;4151565;34;20113;-84
2021/07/30 01:54:20;;;;;;;163.98;123.90;;;;;;;;;;4147552;34;20045;-84
2021/07/30 01:56:48;;;;;;;164.55;121.90;;;;;;;;;;4152518;34;20600;-84
2021/07/30 01:59:17;;;;;;;166.12;121.87;;;;;;;;;;4148103;34;20109;-84
2021/07/30 02:01:46;;;;;;;182.88;123.62;;;;;;;;;;4151632;34;20648;-84
2021/07/30 02:04:18;;;;;;;214.73;136.90;;;;;;;;;;4141711;34;20071;-84
2021/07/30 02:06:47;;;;;;;223.68;140.25;;;;;;;;;;4152166;34;20378;-84
2021/07/30 02:09:16;;;;;;;222.77;142.82;;;;;;;;;;4150234;34;20508;-84
2021/07/30 02:11:53;;;;;;;233.73;145.05;;;;;;;;;;4152229;34;20109;-84
2021/07/30 02:14:26;;;;;;;181.45;115.88;;;;;;;;;;4146486;34;20492;-85
2021/07/30 02:16:58;;;;;;;176.43;114.62;;;;;;;;;;4147653;34;20105;-85
2021/07/30 02:19:27;;;;;;;174.55;114.43;;;;;;;;;;4148655;34;20179;-85
2021/07/30 02:21:56;;;;;;;181.75;118.57;;;;;;;;;;4142951;34;20513;-85
2021/07/30 02:24:25;;;;;;;224.35;137.62;;;;;;;;;;4149847;34;20120;-85
2021/07/30 02:26:53;;;;;;;215.57;135.55;;;;;;;;;;4150916;34;20078;-85
2021/07/30 02:29:22;;;;;;;152.48;120.25;;;;;;;;;;4143387;34;20179;-84
2021/07/30 02:31:51;;;;;;;186.45;122.60;;;;;;;;;;4142170;34;20414;-84
2021/07/30 02:34:20;;;;;;;183.30;124.03;;;;;;;;;;4134536;34;20122;-85
2021/07/30 02:36:49;;;;;;;188.43;122.05;;;;;;;;;;4151629;34;20384;-85
2021/07/30 02:39:18;;;;;;;173.05;120.82;;;;;;;;;;4150021;34;20560;-85
2021/07/30 02:41:46;;;;;;;174.43;112.30;;;;;;;;;;4153332;34;20086;-85
2021/07/30 02:44:17;;;;;;;177.35;110.30;;;;;;;;;;4148643;34;20099;-85
2021/07/30 02:46:45;;;;;;;169.13;112.15;;;;;;;;;;4149320;34;20048;-85
2021/07/30 02:49:14;;;;;;;174.10;111.88;;;;;;;;;;4149327;34;20083;-85
2021/07/30 02:51:42;;;;;;;176.68;111.22;;;;;;;;;;4135043;34;20119;-85
2021/07/30 02:54:11;;;;;;;170.07;109.63;;;;;;;;;;4141727;34;20048;-84
2021/07/30 02:56:40;;;;;;;205.07;127.70;;;;;;;;;;4141669;34;20137;-85
2021/07/30 02:59:08;;;;;;;197.50;121.53;;;;;;;;;;4150968;34;20060;-85
2021/07/30 03:01:36;;;;;;;197.87;121.25;;;;;;;;;;4147405;34;20082;-85
2021/07/30 03:04:05;;;;;;;188.18;120.65;;;;;;;;;;4145127;34;20177;-85
2021/07/30 03:06:34;;;;;;;200.45;127.97;;;;;;;;;;4151464;34;20088;-85
2021/07/30 03:09:02;;;;;;;155.00;116.40;;;;;;;;;;4149146;34;20425;-84
2021/07/30 10:01:35;;;;;;;12.80;3.30;;;;;;;;;;4661001;28;20084;-83
2021/07/30 10:04:07;;;;;;;16.20;4.40;;;;;;;;;;4131270;34;20338;-85
2021/07/30 10:06:35;;;;;;;22.62;4.57;;;;;;;;;;4144975;34;20045;-85
2021/07/30 10:09:04;;;;;;;13.18;3.28;;;;;;;;;;4142856;34;20167;-85
2021/07/30 10:11:38;;;;;;;12.77;3.60;;;;;;;;;;4151573;34;20091;-86
2021/07/30 10:14:07;;;;;;;14.25;3.75;;;;;;;;;;4145484;34;20462;-85
2021/07/30 10:16:38;;;;;;;21.27;4.03;;;;;;;;;;4148433;34;20737;-85
2021/07/30 10:19:07;;;;;;;14.65;4.30;;;;;;;;;;4151490;34;20096;-86
2021/07/30 10:21:37;;;;;;;13.40;3.40;;;;;;;;;;4150829;34;20513;-86
2021/07/30 10:24:07;;;;;;;16.10;3.60;;;;;;;;;;4153029;34;20484;-86
2021/07/30 10:26:35;;;;;;;15.57;3.78;;;;;;;;;;4150958;34;20146;-85
2021/07/30 10:29:05;;;;;;;14.07;3.80;;;;;;;;;;4154228;34;20045;-86
2021/07/30 10:31:49;;;;;;;21.10;4.00;;;;;;;;;;4151273;34;20428;-86
2021/07/30 10:34:39;;;;;;;17.05;3.30;;;;;;;;;;4136113;34;20088;-86
2021/07/30 10:37:27;;;;;;;18.20;4.07;;;;;;;;;;4155193;34;20041;-85
2021/07/30 10:40:14;;;;;;;12.55;3.83;;;;;;;;;;4138958;34;20124;-85
2021/07/30 10:43:02;;;;;;;13.90;3.33;;;;;;;;;;4143855;34;20066;-85
2021/07/30 10:45:34;;;;;;;12.80;3.30;;;;;;;;;;4147860;34;20072;-86
2021/07/30 10:48:12;;;;;;;12.90;3.00;;;;;;;;;;4145156;34;20653;-84
2021/07/30 10:50:44;;;;;;;16.30;4.18;;;;;;;;;;4144983;34;20175;-83
2021/07/30 10:53:34;;;;;;;12.13;3.22;;;;;;;;;;4144923;34;20129;-85
2021/07/30 10:56:07;;;;;;;15.57;3.53;;;;;;;;;;4138307;34;20079;-84
2021/07/30 10:58:41;;;;;;;15.07;3.78;;;;;;;;;;4146639;34;20413;-85
2021/07/30 11:01:15;;;;;;;12.27;3.08;;;;;;;;;;4149032;34;20544;-85
2021/07/30 11:03:54;;;;;;;14.05;3.22;;;;;;;;;;4144505;34;20095;-85
2021/07/30 11:06:24;;;;;;;12.70;3.40;;;;;;;;;;4153911;34;20408;-85
2021/07/30 11:09:04;;;;;;;17.87;4.40;;;;;;;;;;4147333;34;20191;-85
2021/07/30 11:11:40;;;;;;;13.88;3.65;;;;;;;;;;4152485;34;20350;-85
2021/07/30 11:14:22;;;;;;;13.95;3.53;;;;;;;;;;4153693;34;20589;-84
2021/07/30 11:16:58;;;;;;;17.40;4.25;;;;;;;;;;4147715;34;20329;-85
2021/07/30 11:19:32;;;;;;;17.40;3.33;;;;;;;;;;4145562;34;20388;-85
2021/07/30 11:22:02;;;;;;;15.10;3.97;;;;;;;;;;4152958;34;20063;-85
2021/07/30 11:24:31;;;;;;;10.00;3.15;;;;;;;;;;4149603;34;20098;-85
2021/07/30 11:27:00;;;;;;;17.50;4.30;;;;;;;;;;4152186;34;20063;-85
2021/07/30 11:29:29;;;;;;;13.50;4.00;;;;;;;;;;4147407;34;20083;-85
2021/07/30 11:31:59;;;;;;;14.93;3.55;;;;;;;;;;4153203;34;20078;-86
2021/07/30 11:34:30;;;;;;;14.87;3.85;;;;;;;;;;4152404;34;20068;-85
2021/07/30 11:36:59;;;;;;;13.00;3.42;;;;;;;;;;4156416;34;20056;-85
2021/07/30 11:39:31;;;;;;;14.25;3.58;;;;;;;;;;4151227;34;20056;-85
2021/07/30 11:42:00;;;;;;;11.18;3.00;;;;;;;;;;4147699;34;20504;-83
2021/07/30 11:44:29;;;;;;;15.32;4.18;;;;;;;;;;4150605;34;20094;-83
2021/07/30 11:46:58;;;;;;;13.25;3.20;;;;;;;;;;4155006;34;20071;-83
2021/07/30 11:49:28;;;;;;;14.90;3.62;;;;;;;;;;4151743;34;20056;-83
2021/07/30 11:51:59;;;;;;;13.52;3.97;;;;;;;;;;4149333;34;20052;-82
2021/07/30 11:54:28;;;;;;;9.88;2.83;;;;;;;;;;4150729;34;20524;-83
2021/07/30 11:56:57;;;;;;;19.58;4.03;;;;;;;;;;4152639;34;20385;-84
2021/07/30 11:59:26;;;;;;;12.48;2.97;;;;;;;;;;4147764;34;20111;-83
2021/07/30 12:02:01;;;;;;;10.43;3.40;;;;;;;;;;4142379;34;20096;-83
2021/07/30 12:04:31;;;;;;;12.10;3.20;;;;;;;;;;4147729;34;20483;-83
2021/07/30 12:07:12;;;;;;;10.35;3.00;;;;;;;;;;4152425;34;20052;-83
2021/07/30 12:09:41;;;;;;;13.27;3.35;;;;;;;;;;4150924;34;20158;-83
2021/07/30 12:12:13;;;;;;;17.42;3.72;;;;;;;;;;4152279;34;20036;-83
2021/07/30 12:14:49;;;;;;;11.48;3.37;;;;;;;;;;4149571;34;20118;-84
2021/07/30 12:17:18;;;;;;;12.13;3.25;;;;;;;;;;4148419;34;20444;-83
2021/07/30 12:20:06;;;;;;;16.98;3.97;;;;;;;;;;4149069;34;20136;-84
2021/07/30 12:22:45;;;;;;;13.68;3.50;;;;;;;;;;4143799;34;20107;-83
2021/07/30 12:25:17;;;;;;;12.00;3.12;;;;;;;;;;4144104;34;20120;-85
2021/07/30 12:28:04;;;;;;;12.30;3.40;;;;;;;;;;4148753;34;20086;-84
2021/07/30 12:30:33;;;;;;;11.60;3.55;;;;;;;;;;4148377;34;20110;-84
2021/07/30 12:33:01;;;;;;;11.75;3.65;;;;;;;;;;4149752;34;20464;-85
2021/07/30 12:35:31;;;;;;;17.40;3.55;;;;;;;;;;4151051;34;20442;-85
2021/07/30 12:38:02;;;;;;;15.57;3.62;;;;;;;;;;4146583;34;20060;-85
2021/07/30 12:40:30;;;;;;;13.70;3.17;;;;;;;;;;4146317;34;20040;-84
2021/07/30 12:43:10;;;;;;;11.55;3.35;;;;;;;;;;4139764;34;20404;-85
2021/07/30 12:45:39;;;;;;;11.77;3.15;;;;;;;;;;4141707;34;20057;-85
2021/07/30 12:48:08;;;;;;;17.80;3.15;;;;;;;;;;4138866;34;20180;-84
2021/07/30 12:50:37;;;;;;;10.80;3.10;;;;;;;;;;4139666;34;20472;-85
2021/07/30 12:53:10;;;;;;;15.57;3.22;;;;;;;;;;4141940;34;20080;-85
2021/07/30 12:55:58;;;;;;;12.93;3.60;;;;;;;;;;4141967;34;20086;-85
2021/07/30 12:58:28;;;;;;;19.37;4.05;;;;;;;;;;4144826;34;20402;-85
2021/07/30 13:00:57;;;;;;;11.55;3.05;;;;;;;;;;4143580;34;20507;-85
2021/07/30 13:03:27;;;;;;;22.27;4.68;;;;;;;;;;4151542;34;20158;-85
2021/07/30 13:05:59;;;;;;;11.88;3.10;;;;;;;;;;4151078;34;20057;-84
2021/07/30 13:08:29;;;;;;;12.85;3.35;;;;;;;;;;4141998;34;20245;-84
2021/07/30 13:10:58;;;;;;;18.10;4.68;;;;;;;;;;4146714;34;20044;-84
2021/07/30 13:13:28;;;;;;;13.95;3.67;;;;;;;;;;4147264;34;20052;-84
2021/07/30 13:15:57;;;;;;;13.13;3.20;;;;;;;;;;4145846;34;20522;-85
2021/07/30 13:18:25;;;;;;;14.52;3.60;;;;;;;;;;4143378;34;20087;-84
2021/07/30 13:20:55;;;;;;;17.45;3.97;;;;;;;;;;4147248;34;20078;-84
2021/07/30 13:23:24;;;;;;;14.87;4.03;;;;;;;;;;4154157;34;20350;-84
2021/07/30 13:25:52;;;;;;;19.90;4.20;;;;;;;;;;4146077;34;20502;-85
2021/07/30 13:28:22;;;;;;;15.02;3.00;;;;;;;;;;4136364;34;20056;-85
2021/07/30 13:30:52;;;;;;;13.05;3.50;;;;;;;;;;4144479;34;20052;-85
2021/07/30 13:33:20;;;;;;;9.88;3.22;;;;;;;;;;4146436;34;20598;-85
2021/07/30 13:35:49;;;;;;;14.18;3.72;;;;;;;;;;4134617;34;20518;-84
2021/07/30 13:38:18;;;;;;;11.82;3.33;;;;;;;;;;4135795;34;20088;-83
2021/07/30 13:40:48;;;;;;;12.65;3.47;;;;;;;;;;4129717;34;20467;-85
2021/07/30 13:43:16;;;;;;;17.85;4.07;;;;;;;;;;4129808;34;20186;-85
2021/07/30 13:45:47;;;;;;;15.80;3.83;;;;;;;;;;4129518;34;20107;-85
2021/07/30 13:48:16;;;;;;;11.93;3.08;;;;;;;;;;4127765;34;20116;-85
2021/07/30 13:50:45;;;;;;;16.52;3.65;;;;;;;;;;4130201;34;20653;-84
2021/07/30 13:53:13;;;;;;;16.17;4.47;;;;;;;;;;4129946;34;20211;-84
2021/07/30 13:55:42;;;;;;;12.68;3.45;;;;;;;;;;4140873;34;20048;-85
2021/07/30 13:58:11;;;;;;;15.55;3.95;;;;;;;;;;4155053;34;20386;-85
2021/07/30 14:00:39;;;;;;;19.73;4.40;;;;;;;;;;4150860;34;20044;-84
2021/07/30 14:03:08;;;;;;;18.42;3.78;;;;;;;;;;4147789;34;20037;-84
2021/07/30 14:05:37;;;;;;;21.42;5.65;;;;;;;;;;4147599;34;20087;-84
2021/07/30 14:08:05;;;;;;;15.25;4.30;;;;;;;;;;4142052;34;20545;-84
2021/07/30 14:10:34;;;;;;;18.17;4.40;;;;;;;;;;4143125;34;20111;-85
2021/07/30 14:13:03;;;;;;;16.90;3.83;;;;;;;;;;4141755;34;20108;-84
2021/07/30 14:15:36;;;;;;;21.20;4.53;;;;;;;;;;4149898;34;20516;-85
2021/07/30 14:18:05;;;;;;;20.12;4.80;;;;;;;;;;4148895;34;20116;-84
2021/07/30 14:20:34;;;;;;;11.38;3.50;;;;;;;;;;4142551;34;20087;-84
2021/07/30 14:23:03;;;;;;;17.23;4.55;;;;;;;;;;4150989;34;20049;-84
2021/07/30 14:25:32;;;;;;;19.62;4.60;;;;;;;;;;4144092;34;20048;-85
2021/07/30 14:28:04;;;;;;;12.20;4.07;;;;;;;;;;4149785;34;20112;-85
2021/07/30 14:30:34;;;;;;;12.52;4.10;;;;;;;;;;4147025;34;20056;-85
2021/07/30 14:33:03;;;;;;;13.02;3.50;;;;;;;;;;4154196;34;20147;-85
2021/07/30 14:35:31;;;;;;;23.25;4.15;;;;;;;;;;4151707;34;20036;-84
2021/07/30 14:38:00;;;;;;;13.93;3.58;;;;;;;;;;4149887;34;20498;-85
2021/07/30 14:40:29;;;;;;;17.00;4.10;;;;;;;;;;4141241;34;20151;-85
2021/07/30 14:42:58;;;;;;;17.70;4.00;;;;;;;;;;4147076;34;20396;-84
2021/07/30 14:45:27;;;;;;;15.60;4.57;;;;;;;;;;4144660;34;20092;-84
2021/07/30 14:47:55;;;;;;;14.80;4.07;;;;;;;;;;4143054;34;20078;-84
2021/07/30 14:50:24;;;;;;;17.60;4.82;;;;;;;;;;4144965;34;20041;-83
2021/07/30 14:52:53;;;;;;;19.00;4.60;;;;;;;;;;4142297;34;20890;-85
2021/07/30 14:55:22;;;;;;;21.40;4.07;;;;;;;;;;4142949;34;20048;-84
2021/07/30 14:57:50;;;;;;;17.33;4.68;;;;;;;;;;4145552;34;20132;-84
2021/07/30 15:00:19;;;;;;;19.70;5.07;;;;;;;;;;4147011;34;20075;-84
2021/07/30 15:02:48;;;;;;;12.95;3.55;;;;;;;;;;4139867;34;20584;-84
2021/07/30 15:05:17;;;;;;;18.15;4.28;;;;;;;;;;4142517;34;20091;-84
2021/07/30 15:07:46;;;;;;;16.73;4.20;;;;;;;;;;4146046;34;20156;-84
2021/07/30 15:10:15;;;;;;;16.00;3.95;;;;;;;;;;4141845;34;20175;-84
2021/07/30 15:12:43;;;;;;;17.98;4.40;;;;;;;;;;4142008;34;20104;-84
2021/07/30 15:15:12;;;;;;;21.87;4.57;;;;;;;;;;4133259;34;20080;-84
2021/07/30 15:17:41;;;;;;;15.50;3.80;;;;;;;;;;4129171;34;21178;-85
2021/07/30 15:20:09;;;;;;;16.20;4.62;;;;;;;;;;4130419;34;20161;-86
2021/07/30 15:22:38;;;;;;;19.52;4.40;;;;;;;;;;4128602;34;21292;-85
2021/07/30 15:25:07;;;;;;;18.20;4.72;;;;;;;;;;4130381;34;20606;-84
2021/07/30 15:27:35;;;;;;;14.05;4.32;;;;;;;;;;4141545;34;20056;-85
2021/07/30 15:30:04;;;;;;;17.10;4.65;;;;;;;;;;4136734;34;20133;-84
2021/07/30 15:32:32;;;;;;;20.02;4.95;;;;;;;;;;4128341;34;20633;-85
2021/07/30 15:35:01;;;;;;;23.38;4.47;;;;;;;;;;4135704;34;20143;-85
2021/07/30 15:37:37;;;;;;;22.10;4.97;;;;;;;;;;4148392;34;20083;-85
2021/07/30 15:40:05;;;;;;;18.27;4.25;;;;;;;;;;4142972;34;20131;-85
2021/07/30 15:42:34;;;;;;;15.98;4.43;;;;;;;;;;4151888;34;20090;-85
2021/07/30 15:45:04;;;;;;;19.02;4.87;;;;;;;;;;4151253;34;20106;-85
2021/07/30 15:47:33;;;;;;;19.58;4.50;;;;;;;;;;4151686;34;20373;-85
2021/07/30 15:50:02;;;;;;;15.57;3.87;;;;;;;;;;4147421;34;20083;-85
2021/07/30 15:52:30;;;;;;;22.13;4.65;;;;;;;;;;4146611;34;20103;-85
2021/07/30 15:55:05;;;;;;;19.85;4.20;;;;;;;;;;4144506;34;20055;-84
2021/07/30 15:57:34;;;;;;;20.50;4.28;;;;;;;;;;4155043;34;20064;-84
2021/07/30 16:00:04;;;;;;;16.75;3.58;;;;;;;;;;4152979;34;20409;-85
2021/07/30 16:02:39;;;;;;;21.23;5.30;;;;;;;;;;4151886;34;20226;-85
2021/07/30 16:05:08;;;;;;;20.52;5.40;;;;;;;;;;4149744;34;20203;-84
2021/07/30 16:07:36;;;;;;;14.82;4.25;;;;;;;;;;4154625;34;20121;-85
2021/07/30 16:10:05;;;;;;;18.77;4.30;;;;;;;;;;4147327;34;20052;-84
2021/07/30 16:12:35;;;;;;;30.77;6.22;;;;;;;;;;4149583;34;20105;-85
2021/07/30 16:15:05;;;;;;;17.50;4.32;;;;;;;;;;4137190;34;20431;-85
2021/07/30 16:17:33;;;;;;;19.27;5.00;;;;;;;;;;4152161;34;20377;-84
2021/07/30 16:20:02;;;;;;;16.92;5.22;;;;;;;;;;4146634;34;20072;-85
2021/07/30 16:22:30;;;;;;;22.02;4.20;;;;;;;;;;4154209;34;20412;-85
2021/07/30 16:24:59;;;;;;;13.95;4.35;;;;;;;;;;4140050;34;20561;-85
2021/07/30 16:27:28;;;;;;;20.15;5.15;;;;;;;;;;4148178;34;20585;-85
2021/07/30 16:29:58;;;;;;;18.50;4.70;;;;;;;;;;4144563;34;20559;-84
2021/07/30 16:32:26;;;;;;;18.40;4.15;;;;;;;;;;4150403;34;20131;-84
2021/07/30 16:34:55;;;;;;;19.52;4.90;;;;;;;;;;4151922;34;20086;-85
2021/07/30 16:37:24;;;;;;;20.52;9.57;;;;;;;;;;4149774;34;20045;-84
2021/07/30 16:39:52;;;;;;;21.62;6.93;;;;;;;;;;4147218;34;20110;-84
2021/07/30 16:42:21;;;;;;;26.48;15.23;;;;;;;;;;4145421;34;20082;-84
2021/07/30 16:44:49;;;;;;;20.75;9.55;;;;;;;;;;4133884;34;20705;-84
2021/07/30 16:47:18;;;;;;;15.88;4.93;;;;;;;;;;4140580;34;20126;-85
2021/07/30 16:49:47;;;;;;;17.92;5.55;;;;;;;;;;4140586;34;20048;-85
2021/07/30 16:52:15;;;;;;;21.85;6.75;;;;;;;;;;4143849;34;20048;-83
2021/07/30 16:54:44;;;;;;;11.63;4.68;;;;;;;;;;4142883;34;20084;-85
2021/07/30 16:57:13;;;;;;;26.35;12.93;;;;;;;;;;4138654;34;20102;-85
2021/07/30 16:59:41;;;;;;;24.02;8.77;;;;;;;;;;4140881;34;20100;-85
2021/07/30 17:02:10;;;;;;;20.90;6.20;;;;;;;;;;4141460;34;20100;-85
2021/07/30 17:04:39;;;;;;;18.00;4.97;;;;;;;;;;4142219;34;20104;-84
2021/07/30 17:07:07;;;;;;;22.45;6.80;;;;;;;;;;4143535;34;20195;-85
2021/07/30 17:09:35;;;;;;;15.00;4.95;;;;;;;;;;4144014;34;20044;-84
2021/07/30 17:12:04;;;;;;;21.55;6.82;;;;;;;;;;4143676;34;20495;-84
2021/07/30 17:14:33;;;;;;;21.92;8.55;;;;;;;;;;4141719;34;20048;-85
2021/07/30 17:17:01;;;;;;;21.98;9.63;;;;;;;;;;4128126;34;20119;-84
2021/07/30 17:19:30;;;;;;;25.42;19.48;;;;;;;;;;4143908;34;20117;-83
2021/07/30 17:21:59;;;;;;;20.37;9.20;;;;;;;;;;4147341;34;20597;-85
2021/07/30 17:24:27;;;;;;;21.80;10.32;;;;;;;;;;4144544;34;20107;-84
2021/07/30 17:26:56;;;;;;;14.77;6.68;;;;;;;;;;4147877;34;20484;-84
2021/07/30 17:29:24;;;;;;;23.65;15.05;;;;;;;;;;4129081;34;20409;-85
2021/07/30 17:31:53;;;;;;;31.12;27.87;;;;;;;;;;4140978;34;20082;-85
2021/07/30 17:34:22;;;;;;;23.27;17.20;;;;;;;;;;4140411;34;20187;-85
2021/07/30 17:36:50;;;;;;;61.45;56.13;;;;;;;;;;4143504;34;20083;-85
2021/07/30 17:39:21;;;;;;;61.67;56.22;;;;;;;;;;4143076;34;20186;-84
2021/07/30 17:41:50;;;;;;;50.60;45.88;;;;;;;;;;4142955;34;20112;-84
2021/07/30 17:44:19;;;;;;;37.88;34.42;;;;;;;;;;4148092;34;20130;-84
2021/07/30 17:46:47;;;;;;;39.80;35.53;;;;;;;;;;4149645;34;20084;-85
2021/07/30 17:49:16;;;;;;;41.63;37.80;;;;;;;;;;4151432;34;20082;-84
2021/07/30 17:51:44;;;;;;;47.50;40.33;;;;;;;;;;4153807;34;20048;-85
2021/07/30 17:54:13;;;;;;;38.17;34.63;;;;;;;;;;4154573;34;20067;-84
2021/07/30 17:56:42;;;;;;;36.03;30.55;;;;;;;;;;4155038;34;21725;-84
2021/07/30 17:59:10;;;;;;;44.15;39.75;;;;;;;;;;4148743;34;20083;-85
2021/07/30 18:01:39;;;;;;;62.97;56.72;;;;;;;;;;4155363;34;20060;-85
2021/07/30 18:04:08;;;;;;;63.92;57.88;;;;;;;;;;4152751;34;20542;-85
2021/07/30 18:06:37;;;;;;;102.78;93.25;;;;;;;;;;4141672;34;20061;-84
2021/07/30 18:09:07;;;;;;;93.78;84.75;;;;;;;;;;4153063;34;20460;-85
2021/07/30 18:11:36;;;;;;;133.18;120.20;;;;;;;;;;4154808;34;20079;-85
2021/07/30 18:14:04;;;;;;;172.98;155.25;;;;;;;;;;4140604;34;20048;-84
2021/07/30 18:16:33;;;;;;;157.43;141.25;;;;;;;;;;4153462;34;20533;-84
2021/07/30 18:19:02;;;;;;;198.90;170.45;;;;;;;;;;4147934;34;20500;-84
2021/07/30 18:21:30;;;;;;;228.02;191.25;;;;;;;;;;4154540;34;20459;-84
2021/07/30 18:23:59;;;;;;;258.75;209.70;;;;;;;;;;4153486;34;20091;-84
2021/07/30 18:26:27;;;;;;;297.65;225.50;;;;;;;;;;4150833;34;20755;-84
2021/07/30 18:28:56;;;;;;;287.83;213.52;;;;;;;;;;4150927;34;20053;-85
2021/07/30 18:31:24;;;;;;;287.98;214.15;;;;;;;;;;4150770;34;20128;-84
2021/07/30 18:33:53;;;;;;;265.87;207.60;;;;;;;;;;4152126;34;20113;-85
2021/07/30 18:36:22;;;;;;;297.77;211.75;;;;;;;;;;4145816;34;20067;-84
2021/07/30 18:38:51;;;;;;;264.30;217.30;;;;;;;;;;4152298;34;20037;-85
2021/07/30 18:41:21;;;;;;;254.02;222.68;;;;;;;;;;4155235;34;20385;-84
2021/07/30 18:43:49;;;;;;;234.45;207.65;;;;;;;;;;4148261;34;20379;-84
2021/07/30 18:46:17;;;;;;;261.90;211.52;;;;;;;;;;4152688;34;20150;-83
2021/07/30 18:48:47;;;;;;;342.58;234.55;;;;;;;;;;4140924;34;20090;-84
2021/07/30 18:51:16;;;;;;;343.85;235.88;;;;;;;;;;4153148;34;20477;-84
2021/07/30 18:53:52;;;;;;;341.38;235.25;;;;;;;;;;4153549;34;20474;-84
2021/07/30 18:56:22;;;;;;;342.83;233.05;;;;;;;;;;4150980;34;20056;-84
2021/07/30 18:58:50;;;;;;;332.52;224.73;;;;;;;;;;4145951;34;20061;-84
2021/07/30 19:01:18;;;;;;;337.88;231.48;;;;;;;;;;4143966;34;20767;-84
2021/07/30 19:03:48;;;;;;;335.92;225.20;;;;;;;;;;4142399;34;20190;-85
2021/07/30 19:06:16;;;;;;;325.13;221.68;;;;;;;;;;4151011;34;20376;-85
2021/07/30 19:08:45;;;;;;;282.83;200.23;;;;;;;;;;4149403;34;20044;-84
2021/07/30 19:11:14;;;;;;;279.10;198.50;;;;;;;;;;4145830;34;20061;-84
2021/07/30 19:13:42;;;;;;;281.13;184.20;;;;;;;;;;4151927;34;20056;-84
2021/07/30 19:16:11;;;;;;;270.77;181.23;;;;;;;;;;4144061;34;20083;-85
2021/07/30 19:18:40;;;;;;;279.23;182.18;;;;;;;;;;4142402;34;20583;-84
2021/07/30 19:21:08;;;;;;;304.65;214.52;;;;;;;;;;4146946;34;20052;-83
2021/07/30 19:23:37;;;;;;;268.42;183.15;;;;;;;;;;4142027;34;20056;-84
2021/07/30 19:26:05;;;;;;;244.07;192.32;;;;;;;;;;4147115;34;20060;-84
2021/07/30 19:28:34;;;;;;;304.67;212.48;;;;;;;;;;4143516;34;20173;-84
2021/07/30 19:31:02;;;;;;;294.85;207.02;;;;;;;;;;4150133;34;20094;-84
2021/07/30 19:33:31;;;;;;;226.37;175.93;;;;;;;;;;4145576;34;20070;-84
2021/07/30 19:36:00;;;;;;;247.00;183.05;;;;;;;;;;4149218;34;20071;-85
2021/07/30 19:38:29;;;;;;;250.45;190.27;;;;;;;;;;4144749;34;20124;-84
2021/07/30 19:40:58;;;;;;;253.27;173.15;;;;;;;;;;4141778;34;20052;-84
2021/07/30 19:43:26;;;;;;;256.27;160.80;;;;;;;;;;4145866;34;20555;-84
2021/07/30 19:45:56;;;;;;;256.83;164.82;;;;;;;;;;4142784;34;20136;-84
2021/07/30 19:48:25;;;;;;;188.65;127.62;;;;;;;;;;4146203;34;20346;-85
2021/07/30 19:50:53;;;;;;;204.48;135.95;;;;;;;;;;4141332;34;20127;-84
2021/07/30 19:53:24;;;;;;;303.52;193.07;;;;;;;;;;4139446;34;20056;-84
2021/07/30 19:55:53;;;;;;;325.75;204.98;;;;;;;;;;4147217;34;20065;-84
2021/07/30 19:58:22;;;;;;;330.83;207.15;;;;;;;;;;4136051;34;20056;-84
2021/07/30 20:00:55;;;;;;;265.87;183.75;;;;;;;;;;4135077;34;20652;-84
2021/07/30 20:03:24;;;;;;;268.02;174.55;;;;;;;;;;4139498;34;20551;-84
2021/07/30 20:05:52;;;;;;;221.15;156.90;;;;;;;;;;4149012;34;20840;-84
2021/07/30 20:08:21;;;;;;;160.40;125.55;;;;;;;;;;4150477;34;20045;-84
2021/07/30 20:10:49;;;;;;;244.48;156.48;;;;;;;;;;4131743;34;20783;-84
2021/07/30 20:13:18;;;;;;;210.68;148.05;;;;;;;;;;4142300;34;20072;-84
2021/07/30 20:15:46;;;;;;;254.02;164.32;;;;;;;;;;4140275;34;20103;-84
2021/07/30 20:18:15;;;;;;;267.80;168.87;;;;;;;;;;4134787;34;20856;-85
2021/07/30 20:20:44;;;;;;;206.32;139.05;;;;;;;;;;4137216;34;20420;-84
2021/07/30 20:23:12;;;;;;;201.80;124.80;;;;;;;;;;4139770;34;20609;-85
2021/07/30 20:25:41;;;;;;;198.27;128.23;;;;;;;;;;4139248;34;20112;-84
2021/07/30 20:28:09;;;;;;;200.75;130.63;;;;;;;;;;4141368;34;20356;-84
2021/07/30 20:30:38;;;;;;;142.13;115.25;;;;;;;;;;4137541;34;20082;-84
2021/07/30 20:33:08;;;;;;;156.23;121.75;;;;;;;;;;4142355;34;20360;-84
2021/07/30 20:38:55;;;;;;;137.40;108.22;;;;;;;;;;4143533;34;20102;-84
2021/07/30 20:41:30;;;;;;;140.77;115.40;;;;;;;;;;4141807;34;20049;-84
2021/07/30 20:43:59;;;;;;;144.13;114.68;;;;;;;;;;4132623;34;20545;-85
2021/07/30 20:46:29;;;;;;;202.50;137.60;;;;;;;;;;4133368;34;20132;-83
2021/07/30 20:48:57;;;;;;;175.80;120.95;;;;;;;;;;4134630;34;20123;-84
2021/07/30 20:51:25;;;;;;;177.20;120.95;;;;;;;;;;4134673;34;20156;-84
2021/07/30 20:53:54;;;;;;;170.07;118.50;;;;;;;;;;4143881;34;20056;-85
2021/07/30 20:56:23;;;;;;;158.55;112.62;;;;;;;;;;4139603;34;20144;-84
2021/07/30 20:58:53;;;;;;;167.27;114.45;;;;;;;;;;4145573;34;20123;-84
2021/07/30 21:01:27;;;;;;;160.23;107.97;;;;;;;;;;4140763;34;20339;-84
2021/07/30 21:03:58;;;;;;;157.27;110.75;;;;;;;;;;4139198;34;20145;-85
2021/07/30 21:06:27;;;;;;;277.02;188.23;;;;;;;;;;4141128;34;20082;-84
2021/07/30 21:08:56;;;;;;;107.43;92.22;;;;;;;;;;4147671;34;20060;-85
2021/07/30 21:11:24;;;;;;;114.47;92.65;;;;;;;;;;4140889;34;20720;-85
2021/07/30 21:13:53;;;;;;;123.22;101.07;;;;;;;;;;4142138;34;20114;-84
2021/07/30 21:16:21;;;;;;;146.45;105.68;;;;;;;;;;4141408;34;20180;-84
2021/07/30 21:18:50;;;;;;;143.52;103.47;;;;;;;;;;4145794;34;20146;-84